Kaolin Field Information

FAA: OKZ - ICAO: KOKZ

Kaolin Field (Airport) Location

State Georgia
County Washington
City Sandersville
Kaolin Field (Airport) is 2 miles southwest of Sandersville, GA.
Latitude 32-57-58.9480N
Longitude 082-50-14.9570W
Elevation 438ft

Kaolin Field METARs

METAR KOKZ 211555Z AUTO 05009KT 10SM OVC007 04/02 A3028 RMK AO2 T00360018
Altimeter 30.28"
Temperature 3.6°C (38.5°F)
Wind 50° at 9KT
Clouds overcast at 700ft
Visibility 10.0mi
Time observed: 2022-01-21T15:55:00Z

Kaolin Field (Airport) Details

Status Operational
Activation N/A
Ownership Public
Usage Public
Chart ATLANTA
ATC on-site No
Beacon schedule sunset-sunrise
Beacon color clear green

Kaolin Field (Airport) Contacts

Owner WASHINGTON CO
Owner address PO BOX 271, SANDERSVILLE, GA 31082
Owner phone 478-552-9136
Manager N/A
Manager address N/A, N/A
Manager phone N/A

Kaolin Field Radio Frequencies

Kaolin Field (Airport) Radio Frequencies

UNICOM 123
Common traffic advisory frequency (CTAF) 123